sensor_id;sensor_type;location;lat;lon;timestamp;temperature;humidity
21861;DHT22;11095;48.066;8.540;2023-01-29T00:02:05;-1.90;99.90
21861;DHT22;11095;48.066;8.540;2023-01-29T00:04:31;-1.90;99.90
21861;DHT22;11095;48.066;8.540;2023-01-29T00:06:57;-1.90;99.90
21861;DHT22;11095;48.066;8.540;2023-01-29T00:09:23;-1.90;99.90
21861;DHT22;11095;48.066;8.540;2023-01-29T00:11:48;-1.90;99.90
21861;DHT22;11095;48.066;8.540;2023-01-29T00:14:14;-1.90;99.90
21861;DHT22;11095;48.066;8.540;2023-01-29T00:16:40;-1.90;99.90
21861;DHT22;11095;48.066;8.540;2023-01-29T00:19:05;-1.90;99.90
21861;DHT22;11095;48.066;8.540;2023-01-29T00:21:31;-1.90;99.90
21861;DHT22;11095;48.066;8.540;2023-01-29T00:23:58;-2.00;99.90
21861;DHT22;11095;48.066;8.540;2023-01-29T00:26:24;-1.90;99.90
21861;DHT22;11095;48.066;8.540;2023-01-29T00:28:50;-1.90;99.90
21861;DHT22;11095;48.066;8.540;2023-01-29T00:31:19;-2.00;99.90
21861;DHT22;11095;48.066;8.540;2023-01-29T00:33:46;-2.00;99.90
21861;DHT22;11095;48.066;8.540;2023-01-29T00:36:13;-2.00;99.90
21861;DHT22;11095;48.066;8.540;2023-01-29T00:38:39;-1.90;99.90
21861;DHT22;11095;48.066;8.540;2023-01-29T00:41:13;-1.90;99.90
21861;DHT22;11095;48.066;8.540;2023-01-29T00:43:58;-1.90;99.90
21861;DHT22;11095;48.066;8.540;2023-01-29T00:46:42;-2.00;99.90
21861;DHT22;11095;48.066;8.540;2023-01-29T00:49:08;-2.00;99.90
21861;DHT22;11095;48.066;8.540;2023-01-29T00:51:34;-2.00;99.90
21861;DHT22;11095;48.066;8.540;2023-01-29T00:54:00;-1.90;99.90
21861;DHT22;11095;48.066;8.540;2023-01-29T00:56:27;-1.90;99.90
21861;DHT22;11095;48.066;8.540;2023-01-29T00:58:54;-2.00;99.90
21861;DHT22;11095;48.066;8.540;2023-01-29T01:01:20;-2.00;99.90
21861;DHT22;11095;48.066;8.540;2023-01-29T01:04:07;-2.00;99.90
21861;DHT22;11095;48.066;8.540;2023-01-29T01:06:35;-2.00;99.90
21861;DHT22;11095;48.066;8.540;2023-01-29T01:09:01;-2.00;99.90
21861;DHT22;11095;48.066;8.540;2023-01-29T01:11:45;-2.10;99.90
21861;DHT22;11095;48.066;8.540;2023-01-29T01:14:11;-2.00;99.90
21861;DHT22;11095;48.066;8.540;2023-01-29T01:16:36;-2.00;99.90
21861;DHT22;11095;48.066;8.540;2023-01-29T01:19:02;-2.10;99.90
21861;DHT22;11095;48.066;8.540;2023-01-29T01:21:28;-2.10;99.90
21861;DHT22;11095;48.066;8.540;2023-01-29T01:23:54;-2.10;99.90
21861;DHT22;11095;48.066;8.540;2023-01-29T01:26:19;-2.10;99.90
21861;DHT22;11095;48.066;8.540;2023-01-29T01:28:45;-2.10;99.90
21861;DHT22;11095;48.066;8.540;2023-01-29T01:31:12;-2.10;99.90
21861;DHT22;11095;48.066;8.540;2023-01-29T01:33:38;-2.10;99.90
21861;DHT22;11095;48.066;8.540;2023-01-29T01:36:05;-2.10;99.90
21861;DHT22;11095;48.066;8.540;2023-01-29T01:38:35;-2.10;99.90
21861;DHT22;11095;48.066;8.540;2023-01-29T01:41:11;-2.10;99.90
21861;DHT22;11095;48.066;8.540;2023-01-29T01:44:00;-2.10;99.90
21861;DHT22;11095;48.066;8.540;2023-01-29T01:46:44;-2.10;99.90
21861;DHT22;11095;48.066;8.540;2023-01-29T01:49:14;-2.10;99.90
21861;DHT22;11095;48.066;8.540;2023-01-29T01:51:49;-2.10;99.90
21861;DHT22;11095;48.066;8.540;2023-01-29T01:54:21;-2.10;99.90
21861;DHT22;11095;48.066;8.540;2023-01-29T01:56:51;-2.10;99.90
21861;DHT22;11095;48.066;8.540;2023-01-29T01:59:18;-2.10;99.90
21861;DHT22;11095;48.066;8.540;2023-01-29T02:01:48;-2.10;99.90
21861;DHT22;11095;48.066;8.540;2023-01-29T02:04:20;-2.10;99.90
21861;DHT22;11095;48.066;8.540;2023-01-29T02:07:07;-2.10;99.90
21861;DHT22;11095;48.066;8.540;2023-01-29T02:12:32;-2.10;99.90
21861;DHT22;11095;48.066;8.540;2023-01-29T02:14:58;-2.00;99.90
21861;DHT22;11095;48.066;8.540;2023-01-29T02:17:24;-2.00;99.90
21861;DHT22;11095;48.066;8.540;2023-01-29T02:36:44;-1.90;99.90
21861;DHT22;11095;48.066;8.540;2023-01-29T02:39:15;-1.90;99.90
21861;DHT22;11095;48.066;8.540;2023-01-29T02:42:01;-1.90;99.90
21861;DHT22;11095;48.066;8.540;2023-01-29T02:44:40;-1.90;99.90
21861;DHT22;11095;48.066;8.540;2023-01-29T02:47:22;-1.90;99.90
21861;DHT22;11095;48.066;8.540;2023-01-29T02:52:53;-2.00;99.90
21861;DHT22;11095;48.066;8.540;2023-01-29T02:55:36;-2.00;99.90
21861;DHT22;11095;48.066;8.540;2023-01-29T02:58:12;-2.10;99.90
21861;DHT22;11095;48.066;8.540;2023-01-29T03:00:42;-2.00;99.90
21861;DHT22;11095;48.066;8.540;2023-01-29T03:08:30;-1.90;99.90
21861;DHT22;11095;48.066;8.540;2023-01-29T03:11:05;-1.90;99.90
21861;DHT22;11095;48.066;8.540;2023-01-29T03:13:36;-2.00;99.90
21861;DHT22;11095;48.066;8.540;2023-01-29T03:16:32;-1.90;99.90
21861;DHT22;11095;48.066;8.540;2023-01-29T03:19:16;-1.90;99.90
21861;DHT22;11095;48.066;8.540;2023-01-29T03:21:54;-1.90;99.90
21861;DHT22;11095;48.066;8.540;2023-01-29T03:27:15;-1.80;99.90
21861;DHT22;11095;48.066;8.540;2023-01-29T03:30:03;-1.80;99.90
21861;DHT22;11095;48.066;8.540;2023-01-29T03:32:49;-1.80;99.90
21861;DHT22;11095;48.066;8.540;2023-01-29T03:35:20;-1.80;99.90
21861;DHT22;11095;48.066;8.540;2023-01-29T03:37:57;-1.80;99.90
21861;DHT22;11095;48.066;8.540;2023-01-29T03:40:24;-1.80;99.90
21861;DHT22;11095;48.066;8.540;2023-01-29T03:46:25;-1.80;99.90
21861;DHT22;11095;48.066;8.540;2023-01-29T03:54:27;-1.90;99.90
21861;DHT22;11095;48.066;8.540;2023-01-29T03:57:03;-1.80;99.90
21861;DHT22;11095;48.066;8.540;2023-01-29T04:02:30;-1.90;99.90
21861;DHT22;11095;48.066;8.540;2023-01-29T04:05:05;-1.90;99.90
21861;DHT22;11095;48.066;8.540;2023-01-29T04:07:35;-1.90;99.90
21861;DHT22;11095;48.066;8.540;2023-01-29T04:10:08;-2.00;99.90
21861;DHT22;11095;48.066;8.540;2023-01-29T04:12:57;-2.00;99.90
21861;DHT22;11095;48.066;8.540;2023-01-29T04:15:26;-2.10;99.90
21861;DHT22;11095;48.066;8.540;2023-01-29T04:17:54;-2.20;99.90
21861;DHT22;11095;48.066;8.540;2023-01-29T04:20:21;-2.20;99.90
21861;DHT22;11095;48.066;8.540;2023-01-29T04:22:49;-2.20;99.90
21861;DHT22;11095;48.066;8.540;2023-01-29T04:25:21;-2.30;99.90
21861;DHT22;11095;48.066;8.540;2023-01-29T04:41:41;-2.30;99.90
21861;DHT22;11095;48.066;8.540;2023-01-29T04:44:28;-2.20;99.90
21861;DHT22;11095;48.066;8.540;2023-01-29T04:55:21;-2.30;99.90
21861;DHT22;11095;48.066;8.540;2023-01-29T05:00:42;-2.40;99.90
21861;DHT22;11095;48.066;8.540;2023-01-29T05:03:09;-2.40;99.90
21861;DHT22;11095;48.066;8.540;2023-01-29T05:05:38;-2.50;99.90
21861;DHT22;11095;48.066;8.540;2023-01-29T05:08:06;-2.40;99.90
21861;DHT22;11095;48.066;8.540;2023-01-29T05:10:33;-2.50;99.90
21861;DHT22;11095;48.066;8.540;2023-01-29T05:13:00;-2.40;99.90
21861;DHT22;11095;48.066;8.540;2023-01-29T05:15:38;-2.40;99.90
21861;DHT22;11095;48.066;8.540;2023-01-29T05:18:05;-2.40;99.90
21861;DHT22;11095;48.066;8.540;2023-01-29T05:20:35;-2.40;99.90
21861;DHT22;11095;48.066;8.540;2023-01-29T05:23:02;-2.40;99.90
21861;DHT22;11095;48.066;8.540;2023-01-29T05:25:30;-2.40;99.90
21861;DHT22;11095;48.066;8.540;2023-01-29T05:27:56;-2.40;99.90
21861;DHT22;11095;48.066;8.540;2023-01-29T05:30:41;-2.40;99.90
21861;DHT22;11095;48.066;8.540;2023-01-29T05:33:21;-2.30;99.90
21861;DHT22;11095;48.066;8.540;2023-01-29T05:35:47;-2.30;99.90
21861;DHT22;11095;48.066;8.540;2023-01-29T05:38:13;-2.30;99.90
21861;DHT22;11095;48.066;8.540;2023-01-29T05:40:39;-2.30;99.90
21861;DHT22;11095;48.066;8.540;2023-01-29T05:43:15;-2.20;99.90
21861;DHT22;11095;48.066;8.540;2023-01-29T05:45:42;-2.30;99.90
21861;DHT22;11095;48.066;8.540;2023-01-29T05:48:08;-2.30;99.90
21861;DHT22;11095;48.066;8.540;2023-01-29T05:50:34;-2.30;99.90
21861;DHT22;11095;48.066;8.540;2023-01-29T05:53:00;-2.40;99.90
21861;DHT22;11095;48.066;8.540;2023-01-29T05:55:27;-2.40;99.90
21861;DHT22;11095;48.066;8.540;2023-01-29T05:57:54;-2.40;99.90
21861;DHT22;11095;48.066;8.540;2023-01-29T06:00:20;-2.40;99.90
21861;DHT22;11095;48.066;8.540;2023-01-29T06:02:45;-2.40;99.90
21861;DHT22;11095;48.066;8.540;2023-01-29T06:05:11;-2.30;99.90
21861;DHT22;11095;48.066;8.540;2023-01-29T06:07:37;-2.20;99.90
21861;DHT22;11095;48.066;8.540;2023-01-29T06:10:04;-2.10;99.90
21861;DHT22;11095;48.066;8.540;2023-01-29T06:12:30;-2.10;99.90
21861;DHT22;11095;48.066;8.540;2023-01-29T06:14:56;-2.10;99.90
21861;DHT22;11095;48.066;8.540;2023-01-29T06:17:21;-2.20;99.90
21861;DHT22;11095;48.066;8.540;2023-01-29T06:19:47;-2.30;99.90
21861;DHT22;11095;48.066;8.540;2023-01-29T06:22:13;-2.30;99.90
21861;DHT22;11095;48.066;8.540;2023-01-29T06:24:38;-2.40;99.90
21861;DHT22;11095;48.066;8.540;2023-01-29T06:27:04;-2.40;99.90
21861;DHT22;11095;48.066;8.540;2023-01-29T06:29:29;-2.50;99.90
21861;DHT22;11095;48.066;8.540;2023-01-29T06:31:55;-2.50;99.90
21861;DHT22;11095;48.066;8.540;2023-01-29T06:34:21;-2.40;99.90
21861;DHT22;11095;48.066;8.540;2023-01-29T06:36:46;-2.30;99.90
21861;DHT22;11095;48.066;8.540;2023-01-29T06:39:12;-2.30;99.90
21861;DHT22;11095;48.066;8.540;2023-01-29T06:41:37;-2.30;99.90
21861;DHT22;11095;48.066;8.540;2023-01-29T06:44:03;-2.30;99.90
21861;DHT22;11095;48.066;8.540;2023-01-29T06:46:29;-2.30;99.90
21861;DHT22;11095;48.066;8.540;2023-01-29T06:48:57;-2.30;99.90
21861;DHT22;11095;48.066;8.540;2023-01-29T06:51:24;-2.30;99.90
21861;DHT22;11095;48.066;8.540;2023-01-29T06:53:50;-2.20;99.90
21861;DHT22;11095;48.066;8.540;2023-01-29T06:56:15;-2.20;99.90
21861;DHT22;11095;48.066;8.540;2023-01-29T06:58:41;-2.20;99.90
21861;DHT22;11095;48.066;8.540;2023-01-29T07:01:09;-2.20;99.90
21861;DHT22;11095;48.066;8.540;2023-01-29T07:03:35;-2.20;99.90
21861;DHT22;11095;48.066;8.540;2023-01-29T07:06:02;-2.20;99.90
21861;DHT22;11095;48.066;8.540;2023-01-29T07:08:27;-2.20;99.90
21861;DHT22;11095;48.066;8.540;2023-01-29T07:11:01;-2.20;99.90
21861;DHT22;11095;48.066;8.540;2023-01-29T07:13:26;-2.20;99.90
21861;DHT22;11095;48.066;8.540;2023-01-29T07:15:52;-2.10;99.90
21861;DHT22;11095;48.066;8.540;2023-01-29T07:18:18;-2.10;99.90
21861;DHT22;11095;48.066;8.540;2023-01-29T07:20:43;-2.10;99.90
21861;DHT22;11095;48.066;8.540;2023-01-29T07:23:11;-2.10;99.90
21861;DHT22;11095;48.066;8.540;2023-01-29T07:25:37;-2.10;99.90
21861;DHT22;11095;48.066;8.540;2023-01-29T07:28:03;-2.10;99.90
21861;DHT22;11095;48.066;8.540;2023-01-29T07:30:29;-2.10;99.90
21861;DHT22;11095;48.066;8.540;2023-01-29T07:33:09;-2.10;99.90
21861;DHT22;11095;48.066;8.540;2023-01-29T07:35:39;-2.00;99.90
21861;DHT22;11095;48.066;8.540;2023-01-29T07:38:06;-2.00;99.90
21861;DHT22;11095;48.066;8.540;2023-01-29T07:40:32;-1.90;99.90
21861;DHT22;11095;48.066;8.540;2023-01-29T07:42:58;-2.00;99.90
21861;DHT22;11095;48.066;8.540;2023-01-29T07:45:24;-1.90;99.90
21861;DHT22;11095;48.066;8.540;2023-01-29T07:47:54;-1.90;99.90
21861;DHT22;11095;48.066;8.540;2023-01-29T07:50:21;-1.90;99.90
21861;DHT22;11095;48.066;8.540;2023-01-29T07:52:46;-1.90;99.90
21861;DHT22;11095;48.066;8.540;2023-01-29T07:55:12;-1.90;99.90
21861;DHT22;11095;48.066;8.540;2023-01-29T07:57:38;-2.00;99.90
21861;DHT22;11095;48.066;8.540;2023-01-29T08:00:04;-1.90;99.90
21861;DHT22;11095;48.066;8.540;2023-01-29T08:02:29;-1.90;99.90
21861;DHT22;11095;48.066;8.540;2023-01-29T08:04:55;-1.90;99.90
21861;DHT22;11095;48.066;8.540;2023-01-29T08:07:20;-1.80;99.90
21861;DHT22;11095;48.066;8.540;2023-01-29T08:09:46;-1.90;99.90
21861;DHT22;11095;48.066;8.540;2023-01-29T08:12:12;-1.80;99.90
21861;DHT22;11095;48.066;8.540;2023-01-29T08:14:38;-1.80;99.90
21861;DHT22;11095;48.066;8.540;2023-01-29T08:17:04;-1.70;99.90
21861;DHT22;11095;48.066;8.540;2023-01-29T08:19:30;-1.60;99.90
21861;DHT22;11095;48.066;8.540;2023-01-29T08:21:56;-1.60;99.90
21861;DHT22;11095;48.066;8.540;2023-01-29T08:24:21;-1.60;99.90
21861;DHT22;11095;48.066;8.540;2023-01-29T08:26:47;-1.50;99.90
21861;DHT22;11095;48.066;8.540;2023-01-29T08:29:12;-1.40;99.90
21861;DHT22;11095;48.066;8.540;2023-01-29T08:31:38;-1.40;99.90
21861;DHT22;11095;48.066;8.540;2023-01-29T08:34:04;-1.30;99.90
21861;DHT22;11095;48.066;8.540;2023-01-29T08:36:29;-1.40;99.90
21861;DHT22;11095;48.066;8.540;2023-01-29T08:38:55;-1.30;99.90
21861;DHT22;11095;48.066;8.540;2023-01-29T08:41:20;-1.30;99.90
21861;DHT22;11095;48.066;8.540;2023-01-29T08:43:46;-1.30;99.90
21861;DHT22;11095;48.066;8.540;2023-01-29T08:46:12;-1.30;99.90
21861;DHT22;11095;48.066;8.540;2023-01-29T08:48:37;-1.30;99.90
21861;DHT22;11095;48.066;8.540;2023-01-29T08:51:03;-1.30;99.90
21861;DHT22;11095;48.066;8.540;2023-01-29T08:53:30;-1.20;99.90
21861;DHT22;11095;48.066;8.540;2023-01-29T08:55:56;-1.10;99.90
21861;DHT22;11095;48.066;8.540;2023-01-29T08:58:21;-1.10;99.90
21861;DHT22;11095;48.066;8.540;2023-01-29T09:00:47;-1.10;99.90
21861;DHT22;11095;48.066;8.540;2023-01-29T09:03:13;-1.10;99.90
21861;DHT22;11095;48.066;8.540;2023-01-29T09:05:39;-1.10;99.90
21861;DHT22;11095;48.066;8.540;2023-01-29T09:08:07;-1.10;99.90
21861;DHT22;11095;48.066;8.540;2023-01-29T09:10:33;-1.10;99.90
21861;DHT22;11095;48.066;8.540;2023-01-29T09:12:59;-1.00;99.90
21861;DHT22;11095;48.066;8.540;2023-01-29T09:15:25;-1.00;99.90
21861;DHT22;11095;48.066;8.540;2023-01-29T09:17:51;-0.90;99.90
21861;DHT22;11095;48.066;8.540;2023-01-29T09:20:17;-0.90;99.90
21861;DHT22;11095;48.066;8.540;2023-01-29T09:22:46;-0.90;99.90
21861;DHT22;11095;48.066;8.540;2023-01-29T09:25:12;-0.90;99.90
21861;DHT22;11095;48.066;8.540;2023-01-29T09:27:38;-1.00;99.90
21861;DHT22;11095;48.066;8.540;2023-01-29T09:30:04;-1.20;99.90
21861;DHT22;11095;48.066;8.540;2023-01-29T09:32:32;-1.20;99.90
21861;DHT22;11095;48.066;8.540;2023-01-29T09:34:58;-1.20;99.90
21861;DHT22;11095;48.066;8.540;2023-01-29T09:37:24;-1.30;99.90
21861;DHT22;11095;48.066;8.540;2023-01-29T09:39:49;-1.40;99.90
21861;DHT22;11095;48.066;8.540;2023-01-29T09:42:42;-1.40;99.90
21861;DHT22;11095;48.066;8.540;2023-01-29T09:45:11;-1.30;99.90
21861;DHT22;11095;48.066;8.540;2023-01-29T09:47:38;-1.10;99.90
21861;DHT22;11095;48.066;8.540;2023-01-29T09:50:13;-1.00;99.90
21861;DHT22;11095;48.066;8.540;2023-01-29T09:55:31;-0.80;99.90
21861;DHT22;11095;48.066;8.540;2023-01-29T10:20:41;0.50;99.90
21861;DHT22;11095;48.066;8.540;2023-01-29T10:23:51;0.50;99.90
21861;DHT22;11095;48.066;8.540;2023-01-29T10:25:57;0.50;99.90
21861;DHT22;11095;48.066;8.540;2023-01-29T10:28:31;0.60;99.90
21861;DHT22;11095;48.066;8.540;2023-01-29T10:31:10;0.70;99.90
21861;DHT22;11095;48.066;8.540;2023-01-29T10:33:42;0.80;99.90
21861;DHT22;11095;48.066;8.540;2023-01-29T10:36:18;0.70;99.90
21861;DHT22;11095;48.066;8.540;2023-01-29T10:38:46;0.70;99.90
21861;DHT22;11095;48.066;8.540;2023-01-29T10:57:22;1.70;99.90
21861;DHT22;11095;48.066;8.540;2023-01-29T11:00:11;1.80;99.90
21861;DHT22;11095;48.066;8.540;2023-01-29T11:02:45;1.90;99.90
21861;DHT22;11095;48.066;8.540;2023-01-29T11:08:22;2.00;99.90
21861;DHT22;11095;48.066;8.540;2023-01-29T11:11:04;2.00;99.90
21861;DHT22;11095;48.066;8.540;2023-01-29T11:13:37;1.90;99.90
21861;DHT22;11095;48.066;8.540;2023-01-29T11:16:05;2.10;99.90
21861;DHT22;11095;48.066;8.540;2023-01-29T11:18:50;2.10;99.90
21861;DHT22;11095;48.066;8.540;2023-01-29T11:21:15;2.10;99.90
21861;DHT22;11095;48.066;8.540;2023-01-29T11:23:41;2.10;99.90
21861;DHT22;11095;48.066;8.540;2023-01-29T11:26:10;2.20;99.90
21861;DHT22;11095;48.066;8.540;2023-01-29T11:28:40;2.30;99.90
21861;DHT22;11095;48.066;8.540;2023-01-29T11:34:00;2.60;99.90
21861;DHT22;11095;48.066;8.540;2023-01-29T11:36:34;2.80;99.90
21861;DHT22;11095;48.066;8.540;2023-01-29T11:39:18;2.90;99.90
21861;DHT22;11095;48.066;8.540;2023-01-29T11:44:31;3.00;99.90
21861;DHT22;11095;48.066;8.540;2023-01-29T11:47:19;3.00;99.90
21861;DHT22;11095;48.066;8.540;2023-01-29T11:49:59;3.10;99.90
21861;DHT22;11095;48.066;8.540;2023-01-29T11:52:42;3.30;99.90
21861;DHT22;11095;48.066;8.540;2023-01-29T11:55:26;3.50;99.90
21861;DHT22;11095;48.066;8.540;2023-01-29T11:58:00;3.70;99.90
21861;DHT22;11095;48.066;8.540;2023-01-29T12:00:30;3.90;99.90
21861;DHT22;11095;48.066;8.540;2023-01-29T12:05:55;3.70;99.90
21861;DHT22;11095;48.066;8.540;2023-01-29T12:08:23;3.50;99.90
21861;DHT22;11095;48.066;8.540;2023-01-29T12:10:49;3.40;99.90
21861;DHT22;11095;48.066;8.540;2023-01-29T12:15:41;3.20;99.90
21861;DHT22;11095;48.066;8.540;2023-01-29T12:20:53;3.30;99.90
21861;DHT22;11095;48.066;8.540;2023-01-29T12:23:43;3.40;99.90
21861;DHT22;11095;48.066;8.540;2023-01-29T12:26:11;3.20;99.90
21861;DHT22;11095;48.066;8.540;2023-01-29T12:28:41;3.20;99.90
21861;DHT22;11095;48.066;8.540;2023-01-29T12:31:15;3.20;99.90
21861;DHT22;11095;48.066;8.540;2023-01-29T12:34:05;3.10;99.90
21861;DHT22;11095;48.066;8.540;2023-01-29T12:36:46;3.00;99.90
21861;DHT22;11095;48.066;8.540;2023-01-29T12:39:18;2.90;99.90
21861;DHT22;11095;48.066;8.540;2023-01-29T12:44:29;2.70;99.90
21861;DHT22;11095;48.066;8.540;2023-01-29T12:46:59;2.60;99.90
21861;DHT22;11095;48.066;8.540;2023-01-29T12:49:31;2.50;99.90
21861;DHT22;11095;48.066;8.540;2023-01-29T12:52:12;2.40;99.90
21861;DHT22;11095;48.066;8.540;2023-01-29T12:54:43;2.50;99.90
21861;DHT22;11095;48.066;8.540;2023-01-29T13:00:03;2.70;99.90
21861;DHT22;11095;48.066;8.540;2023-01-29T13:02:31;2.70;99.90
21861;DHT22;11095;48.066;8.540;2023-01-29T13:05:23;2.80;99.90
21861;DHT22;11095;48.066;8.540;2023-01-29T13:07:57;2.90;99.90
21861;DHT22;11095;48.066;8.540;2023-01-29T13:10:30;3.00;99.90
21861;DHT22;11095;48.066;8.540;2023-01-29T13:13:01;3.10;99.90
21861;DHT22;11095;48.066;8.540;2023-01-29T13:15:37;3.00;99.90
21861;DHT22;11095;48.066;8.540;2023-01-29T13:21:02;2.50;99.90
21861;DHT22;11095;48.066;8.540;2023-01-29T13:23:41;2.50;99.90
21861;DHT22;11095;48.066;8.540;2023-01-29T13:26:08;2.40;99.90
21861;DHT22;11095;48.066;8.540;2023-01-29T13:28:33;2.30;99.90
21861;DHT22;11095;48.066;8.540;2023-01-29T13:36:27;1.90;99.90
21861;DHT22;11095;48.066;8.540;2023-01-29T13:39:06;1.80;99.90
21861;DHT22;11095;48.066;8.540;2023-01-29T13:41:42;1.60;99.90
21861;DHT22;11095;48.066;8.540;2023-01-29T13:44:37;1.30;99.90
21861;DHT22;11095;48.066;8.540;2023-01-29T13:47:09;1.10;99.90
21861;DHT22;11095;48.066;8.540;2023-01-29T13:49:42;0.90;99.90
21861;DHT22;11095;48.066;8.540;2023-01-29T13:52:37;0.90;99.90
21861;DHT22;11095;48.066;8.540;2023-01-29T13:55:05;0.90;99.90
21861;DHT22;11095;48.066;8.540;2023-01-29T13:58:14;0.70;99.90
21861;DHT22;11095;48.066;8.540;2023-01-29T14:10:38;0.70;99.90
21861;DHT22;11095;48.066;8.540;2023-01-29T14:15:35;0.80;99.90
21861;DHT22;11095;48.066;8.540;2023-01-29T14:18:19;0.70;99.90
21861;DHT22;11095;48.066;8.540;2023-01-29T14:26:04;0.90;99.90
21861;DHT22;11095;48.066;8.540;2023-01-29T14:28:31;1.00;99.90
21861;DHT22;11095;48.066;8.540;2023-01-29T14:30:58;1.00;99.90
21861;DHT22;11095;48.066;8.540;2023-01-29T14:33:27;0.90;99.90
21861;DHT22;11095;48.066;8.540;2023-01-29T14:35:56;0.70;99.90
21861;DHT22;11095;48.066;8.540;2023-01-29T14:38:26;0.70;99.90
21861;DHT22;11095;48.066;8.540;2023-01-29T14:41:01;0.60;99.90
21861;DHT22;11095;48.066;8.540;2023-01-29T14:43:27;0.60;99.90
21861;DHT22;11095;48.066;8.540;2023-01-29T14:45:53;0.50;99.90
21861;DHT22;11095;48.066;8.540;2023-01-29T14:48:35;0.50;99.90
21861;DHT22;11095;48.066;8.540;2023-01-29T14:51:12;0.50;99.90
21861;DHT22;11095;48.066;8.540;2023-01-29T14:58:48;0.50;99.90
21861;DHT22;11095;48.066;8.540;2023-01-29T15:01:20;0.50;99.90
21861;DHT22;11095;48.066;8.540;2023-01-29T15:03:49;0.50;99.90
21861;DHT22;11095;48.066;8.540;2023-01-29T15:09:48;0.40;99.90
21861;DHT22;11095;48.066;8.540;2023-01-29T15:12:39;0.40;99.90
21861;DHT22;11095;48.066;8.540;2023-01-29T15:15:17;0.30;99.90
21861;DHT22;11095;48.066;8.540;2023-01-29T15:18:07;0.30;99.90
21861;DHT22;11095;48.066;8.540;2023-01-29T15:20:35;0.30;99.90
21861;DHT22;11095;48.066;8.540;2023-01-29T15:23:02;0.30;99.90
21861;DHT22;11095;48.066;8.540;2023-01-29T15:25:36;0.10;99.90
21861;DHT22;11095;48.066;8.540;2023-01-29T15:28:10;0.10;99.90
21861;DHT22;11095;48.066;8.540;2023-01-29T15:30:37;0.10;99.90
21861;DHT22;11095;48.066;8.540;2023-01-29T15:33:04;0.10;99.90
21861;DHT22;11095;48.066;8.540;2023-01-29T15:35:37;0.00;99.90
21861;DHT22;11095;48.066;8.540;2023-01-29T15:38:15;0.00;99.90
21861;DHT22;11095;48.066;8.540;2023-01-29T15:40:50;-0.10;99.90
21861;DHT22;11095;48.066;8.540;2023-01-29T15:43:35;-0.10;99.90
21861;DHT22;11095;48.066;8.540;2023-01-29T15:46:04;-0.10;99.90
21861;DHT22;11095;48.066;8.540;2023-01-29T15:48:39;-0.10;99.90
21861;DHT22;11095;48.066;8.540;2023-01-29T15:51:07;-0.10;99.90
21861;DHT22;11095;48.066;8.540;2023-01-29T15:53:39;0.00;99.90
21861;DHT22;11095;48.066;8.540;2023-01-29T15:56:11;0.00;99.90
21861;DHT22;11095;48.066;8.540;2023-01-29T15:58:38;0.00;99.90
21861;DHT22;11095;48.066;8.540;2023-01-29T16:01:04;0.00;99.90
21861;DHT22;11095;48.066;8.540;2023-01-29T16:03:32;-0.10;99.90
21861;DHT22;11095;48.066;8.540;2023-01-29T16:05:59;-0.10;99.90
21861;DHT22;11095;48.066;8.540;2023-01-29T16:08:26;-0.20;99.90
21861;DHT22;11095;48.066;8.540;2023-01-29T16:10:58;-0.20;99.90
21861;DHT22;11095;48.066;8.540;2023-01-29T16:13:32;-0.20;99.90
21861;DHT22;11095;48.066;8.540;2023-01-29T16:16:13;-0.30;99.90
21861;DHT22;11095;48.066;8.540;2023-01-29T16:18:44;-0.40;99.90
21861;DHT22;11095;48.066;8.540;2023-01-29T16:21:22;-0.40;99.90
21861;DHT22;11095;48.066;8.540;2023-01-29T16:23:51;-0.40;99.90
21861;DHT22;11095;48.066;8.540;2023-01-29T16:26:22;-0.40;99.90
21861;DHT22;11095;48.066;8.540;2023-01-29T16:28:49;-0.50;99.90
21861;DHT22;11095;48.066;8.540;2023-01-29T16:31:24;-0.50;99.90
21861;DHT22;11095;48.066;8.540;2023-01-29T16:33:51;-0.60;99.90
21861;DHT22;11095;48.066;8.540;2023-01-29T16:36:20;-0.60;99.90
21861;DHT22;11095;48.066;8.540;2023-01-29T16:38:50;-0.70;99.90
21861;DHT22;11095;48.066;8.540;2023-01-29T16:43:49;-0.80;99.90
21861;DHT22;11095;48.066;8.540;2023-01-29T16:46:25;-0.90;99.90
21861;DHT22;11095;48.066;8.540;2023-01-29T16:48:52;-0.90;99.90
21861;DHT22;11095;48.066;8.540;2023-01-29T16:51:30;-1.00;99.90
21861;DHT22;11095;48.066;8.540;2023-01-29T16:54:12;-1.10;99.90
21861;DHT22;11095;48.066;8.540;2023-01-29T16:56:46;-1.10;99.90
21861;DHT22;11095;48.066;8.540;2023-01-29T16:59:18;-1.20;99.90
21861;DHT22;11095;48.066;8.540;2023-01-29T17:01:45;-1.30;99.90
21861;DHT22;11095;48.066;8.540;2023-01-29T17:04:16;-1.40;99.90
21861;DHT22;11095;48.066;8.540;2023-01-29T17:06:46;-1.50;99.90
21861;DHT22;11095;48.066;8.540;2023-01-29T17:09:33;-1.50;99.90
21861;DHT22;11095;48.066;8.540;2023-01-29T17:12:01;-1.60;99.90
21861;DHT22;11095;48.066;8.540;2023-01-29T17:14:30;-1.70;99.90
21861;DHT22;11095;48.066;8.540;2023-01-29T17:17:05;-1.70;99.90
21861;DHT22;11095;48.066;8.540;2023-01-29T17:19:32;-1.80;99.90
21861;DHT22;11095;48.066;8.540;2023-01-29T17:21:58;-1.90;99.90
21861;DHT22;11095;48.066;8.540;2023-01-29T17:24:24;-2.00;99.90
21861;DHT22;11095;48.066;8.540;2023-01-29T17:26:50;-2.00;99.90
21861;DHT22;11095;48.066;8.540;2023-01-29T17:29:18;-2.10;99.90
21861;DHT22;11095;48.066;8.540;2023-01-29T17:31:44;-2.10;99.90
21861;DHT22;11095;48.066;8.540;2023-01-29T17:34:12;-2.20;99.90
21861;DHT22;11095;48.066;8.540;2023-01-29T17:36:41;-2.30;99.90
21861;DHT22;11095;48.066;8.540;2023-01-29T17:39:19;-2.30;99.90
21861;DHT22;11095;48.066;8.540;2023-01-29T17:41:50;-2.30;99.90
21861;DHT22;11095;48.066;8.540;2023-01-29T17:44:17;-2.30;99.90
21861;DHT22;11095;48.066;8.540;2023-01-29T17:46:42;-2.30;99.90
21861;DHT22;11095;48.066;8.540;2023-01-29T17:51:46;-2.20;99.90
21861;DHT22;11095;48.066;8.540;2023-01-29T17:54:13;-2.20;99.90
21861;DHT22;11095;48.066;8.540;2023-01-29T17:56:39;-2.20;99.90
21861;DHT22;11095;48.066;8.540;2023-01-29T17:59:19;-2.20;99.90
21861;DHT22;11095;48.066;8.540;2023-01-29T18:01:45;-2.20;99.90
21861;DHT22;11095;48.066;8.540;2023-01-29T18:04:11;-2.30;99.90
21861;DHT22;11095;48.066;8.540;2023-01-29T18:06:38;-2.30;99.90
21861;DHT22;11095;48.066;8.540;2023-01-29T18:09:04;-2.40;99.90
21861;DHT22;11095;48.066;8.540;2023-01-29T18:11:30;-2.40;99.90
21861;DHT22;11095;48.066;8.540;2023-01-29T18:13:56;-2.40;99.90
21861;DHT22;11095;48.066;8.540;2023-01-29T18:16:23;-2.50;99.90
21861;DHT22;11095;48.066;8.540;2023-01-29T18:18:50;-2.50;99.90
21861;DHT22;11095;48.066;8.540;2023-01-29T18:21:16;-2.60;99.90
21861;DHT22;11095;48.066;8.540;2023-01-29T18:23:42;-2.70;99.90
21861;DHT22;11095;48.066;8.540;2023-01-29T18:26:11;-2.70;99.90
21861;DHT22;11095;48.066;8.540;2023-01-29T18:28:37;-2.80;99.90
21861;DHT22;11095;48.066;8.540;2023-01-29T18:31:04;-2.80;99.90
21861;DHT22;11095;48.066;8.540;2023-01-29T18:33:30;-2.90;99.90
21861;DHT22;11095;48.066;8.540;2023-01-29T18:35:56;-2.90;99.90
21861;DHT22;11095;48.066;8.540;2023-01-29T18:38:22;-3.00;99.90
21861;DHT22;11095;48.066;8.540;2023-01-29T18:40:47;-3.00;99.90
21861;DHT22;11095;48.066;8.540;2023-01-29T18:43:14;-3.10;99.90
21861;DHT22;11095;48.066;8.540;2023-01-29T18:45:40;-3.10;99.90
21861;DHT22;11095;48.066;8.540;2023-01-29T18:48:06;-3.10;99.90